Time;durP1;ratioP1;P1;durP2;ratioP2;P2;SDS_P1;SDS_P2;PMS_P1;PMS_P2;Temp;Humidity;BMP_temperature;BMP_pressure;BME280_temperature;BME280_humidity;BME280_pressure;Samples;Min_cycle;Max_cycle;Signal;HPM_P1;HPM_P2
2023/09/21 00:00:19;;;;;;;6.97;3.90;;;17.80;99.90;;;;;;5043597;28;20500;-71
2023/09/21 00:02:51;;;;;;;3.33;2.70;;;17.90;99.90;;;;;;5056937;28;20460;-71
2023/09/21 00:05:28;;;;;;;12.50;4.00;;;17.90;99.90;;;;;;5072406;28;20530;-71
2023/09/21 00:07:57;;;;;;;3.43;2.50;;;17.90;99.90;;;;;;5067657;28;20523;-73
2023/09/21 00:10:31;;;;;;;4.87;3.93;;;17.80;99.90;;;;;;5051156;28;20446;-74
2023/09/21 00:12:59;;;;;;;3.10;2.63;;;17.80;99.90;;;;;;5050501;28;20448;-73
2023/09/21 00:15:28;;;;;;;4.83;3.07;;;17.80;99.90;;;;;;5052456;28;20529;-71
2023/09/21 00:17:55;;;;;;;3.30;2.80;;;17.70;99.90;;;;;;5050059;28;20471;-71
2023/09/21 00:20:23;;;;;;;4.37;3.10;;;17.80;99.90;;;;;;5042168;28;20451;-73
2023/09/21 00:22:50;;;;;;;4.00;2.47;;;17.80;99.90;;;;;;5048351;28;20445;-73
2023/09/21 00:25:17;;;;;;;3.80;2.90;;;17.80;99.90;;;;;;5047168;28;20442;-72
2023/09/21 00:27:44;;;;;;;4.70;2.93;;;17.80;99.90;;;;;;5047088;28;20485;-73
2023/09/21 00:30:12;;;;;;;5.47;2.57;;;17.70;99.90;;;;;;5048383;28;20444;-73
2023/09/21 00:32:41;;;;;;;5.13;2.97;;;17.70;99.90;;;;;;5055961;28;20545;-72
2023/09/21 00:35:10;;;;;;;4.43;2.57;;;17.60;99.90;;;;;;5058503;28;20971;-71
2023/09/21 00:37:38;;;;;;;4.23;3.17;;;17.60;99.90;;;;;;5049382;28;20556;-73
2023/09/21 00:40:22;;;;;;;4.70;2.50;;;17.50;99.90;;;;;;5037194;28;20441;-71
2023/09/21 00:42:49;;;;;;;5.10;2.60;;;17.50;99.90;;;;;;5050897;28;20436;-72
2023/09/21 00:45:18;;;;;;;7.37;2.70;;;17.50;99.90;;;;;;5051836;28;20224;-75
2023/09/21 00:47:49;;;;;;;3.77;2.80;;;17.50;99.90;;;;;;5052876;28;20487;-74
2023/09/21 00:50:24;;;;;;;3.07;2.50;;;17.50;99.90;;;;;;5051326;28;20528;-72
2023/09/21 00:52:53;;;;;;;3.37;2.80;;;17.50;99.90;;;;;;5051761;28;20444;-73
2023/09/21 00:55:23;;;;;;;3.53;3.07;;;17.50;99.90;;;;;;5052684;28;20500;-73
2023/09/21 00:57:55;;;;;;;4.63;2.90;;;17.40;99.90;;;;;;5052213;28;20430;-72
2023/09/21 01:00:39;;;;;;;3.53;2.40;;;17.50;99.90;;;;;;5054578;28;20450;-74
2023/09/21 01:03:11;;;;;;;3.63;2.63;;;17.50;99.90;;;;;;5042563;28;20434;-72
2023/09/21 01:05:40;;;;;;;5.90;2.70;;;17.40;99.90;;;;;;5054638;28;20522;-74
2023/09/21 01:08:10;;;;;;;6.23;3.17;;;17.40;99.90;;;;;;5051607;28;20806;-73
2023/09/21 01:10:39;;;;;;;3.90;2.73;;;17.30;99.90;;;;;;5055112;28;20449;-74
2023/09/21 01:13:07;;;;;;;5.13;3.47;;;17.30;99.90;;;;;;5040650;28;20449;-71
2023/09/21 01:15:34;;;;;;;5.83;2.80;;;17.30;99.90;;;;;;5049465;28;20440;-73
2023/09/21 01:18:06;;;;;;;2.93;2.50;;;17.30;99.90;;;;;;5046574;28;20524;-74
2023/09/21 01:20:35;;;;;;;4.27;3.00;;;17.20;99.90;;;;;;5049694;28;20438;-72
2023/09/21 01:23:20;;;;;;;5.77;3.43;;;17.30;99.90;;;;;;5045599;28;20504;-74
2023/09/21 01:25:50;;;;;;;4.80;4.30;;;17.30;99.90;;;;;;5045266;28;20545;-72
2023/09/21 01:28:20;;;;;;;6.03;2.80;;;17.30;99.90;;;;;;5045648;28;20485;-73
2023/09/21 01:30:48;;;;;;;5.53;2.70;;;17.30;99.90;;;;;;5052929;28;20481;-72
2023/09/21 01:33:17;;;;;;;3.00;2.10;;;17.30;99.90;;;;;;5044523;28;20437;-73
2023/09/21 01:35:44;;;;;;;4.03;2.90;;;17.30;99.90;;;;;;5049669;28;20476;-71
2023/09/21 01:38:13;;;;;;;6.10;3.30;;;17.30;99.90;;;;;;5052744;28;20438;-73
2023/09/21 01:40:41;;;;;;;3.60;2.40;;;17.30;99.90;;;;;;5045544;28;20444;-72
2023/09/21 01:43:11;;;;;;;3.17;2.33;;;17.30;99.90;;;;;;5041545;28;20503;-72
2023/09/21 01:45:39;;;;;;;4.60;2.93;;;17.30;99.90;;;;;;5038889;28;20526;-72
2023/09/21 01:48:09;;;;;;;3.27;2.50;;;17.30;99.90;;;;;;5045377;28;20486;-74
2023/09/21 01:50:43;;;;;;;5.43;2.93;;;17.30;99.90;;;;;;5036602;28;20481;-74
2023/09/21 01:53:10;;;;;;;3.70;2.70;;;17.40;99.90;;;;;;5032543;28;20951;-75
2023/09/21 01:55:37;;;;;;;4.00;3.07;;;17.30;99.90;;;;;;5049876;28;20461;-71
2023/09/21 01:58:05;;;;;;;6.20;3.10;;;17.40;99.90;;;;;;5052602;28;20496;-74
2023/09/21 02:00:35;;;;;;;5.00;3.40;;;17.40;99.90;;;;;;5050587;28;20444;-74
2023/09/21 02:03:06;;;;;;;3.80;2.28;;;17.50;99.90;;;;;;5040602;28;20532;-74
2023/09/21 02:05:34;;;;;;;4.88;2.53;;;17.50;99.90;;;;;;5047534;28;20359;-74
2023/09/21 02:08:04;;;;;;;3.33;2.50;;;17.40;99.90;;;;;;5044581;28;20233;-73
2023/09/21 02:10:31;;;;;;;2.87;2.50;;;17.50;99.90;;;;;;5044875;28;20448;-73
2023/09/21 02:13:00;;;;;;;2.80;2.50;;;17.40;99.90;;;;;;5042812;28;20488;-72
2023/09/21 02:15:28;;;;;;;4.20;2.90;;;17.40;99.90;;;;;;5050591;28;20461;-70
2023/09/21 02:17:56;;;;;;;3.37;2.50;;;17.40;99.90;;;;;;5050686;28;20447;-71
2023/09/21 02:20:31;;;;;;;4.03;2.43;;;17.50;99.90;;;;;;5051210;28;20445;-73
2023/09/21 02:23:00;;;;;;;4.83;2.60;;;17.40;99.90;;;;;;5047260;28;20514;-74
2023/09/21 02:25:30;;;;;;;4.00;2.63;;;17.40;99.90;;;;;;5049276;28;20453;-74
2023/09/21 02:27:57;;;;;;;4.13;3.10;;;17.40;99.90;;;;;;5049950;28;20468;-74
2023/09/21 02:30:25;;;;;;;3.50;2.77;;;17.40;99.90;;;;;;5053175;28;20463;-73
2023/09/21 02:32:53;;;;;;;3.73;2.77;;;17.40;99.90;;;;;;5054963;28;20482;-74
2023/09/21 02:35:27;;;;;;;5.40;2.77;;;17.40;99.90;;;;;;5055138;28;20448;-72
2023/09/21 02:37:55;;;;;;;3.73;3.10;;;17.40;99.90;;;;;;5054451;28;20451;-72
2023/09/21 02:40:23;;;;;;;3.03;2.13;;;17.40;99.90;;;;;;5055438;28;20857;-73
2023/09/21 02:42:51;;;;;;;3.77;2.80;;;17.40;99.90;;;;;;5054820;28;20485;-72
2023/09/21 02:45:19;;;;;;;5.37;2.63;;;17.40;99.90;;;;;;5056434;28;20505;-73
2023/09/21 02:47:47;;;;;;;6.90;3.13;;;17.40;99.90;;;;;;5055761;28;20472;-71
2023/09/21 02:50:15;;;;;;;3.00;2.47;;;17.40;99.90;;;;;;5053206;28;20552;-72
2023/09/21 02:52:47;;;;;;;5.73;3.30;;;17.40;99.90;;;;;;5054890;28;20453;-74
2023/09/21 02:55:18;;;;;;;6.70;2.63;;;17.40;99.90;;;;;;5054502;28;20441;-74
2023/09/21 02:57:45;;;;;;;4.37;3.20;;;17.40;99.90;;;;;;5058101;28;20473;-71
2023/09/21 03:00:26;;;;;;;5.00;3.57;;;17.40;99.90;;;;;;5055531;28;20457;-73
2023/09/21 03:02:55;;;;;;;3.30;2.97;;;17.40;99.90;;;;;;5064238;28;20445;-70
2023/09/21 03:05:24;;;;;;;7.07;3.03;;;17.30;99.90;;;;;;5056728;28;20457;-74
2023/09/21 03:07:54;;;;;;;3.77;3.03;;;17.40;99.90;;;;;;5056672;28;20500;-73
2023/09/21 03:10:22;;;;;;;4.20;2.30;;;17.30;99.90;;;;;;5049723;28;20448;-73
2023/09/21 03:12:49;;;;;;;4.90;3.20;;;17.40;99.90;;;;;;5052150;28;20980;-71
2023/09/21 03:15:18;;;;;;;3.77;2.93;;;17.30;99.90;;;;;;5052494;28;20452;-74
2023/09/21 03:17:45;;;;;;;6.67;2.53;;;17.30;99.90;;;;;;5050780;28;20551;-73
2023/09/21 03:20:26;;;;;;;3.10;2.33;;;17.30;99.90;;;;;;5047717;28;20430;-72
2023/09/21 03:22:55;;;;;;;4.33;2.80;;;17.30;99.90;;;;;;5053782;28;20511;-73
2023/09/21 03:25:27;;;;;;;7.17;3.27;;;17.30;99.90;;;;;;5051976;28;20449;-71
2023/09/21 03:27:56;;;;;;;4.90;2.80;;;17.30;99.90;;;;;;5051992;28;20445;-73
2023/09/21 03:30:24;;;;;;;2.97;2.57;;;17.30;99.90;;;;;;5046751;28;20569;-73
2023/09/21 03:32:52;;;;;;;4.80;3.70;;;17.40;99.90;;;;;;5050206;28;20438;-71
2023/09/21 03:35:20;;;;;;;3.53;2.37;;;17.30;99.90;;;;;;5049428;28;20453;-71
2023/09/21 03:37:49;;;;;;;5.73;3.10;;;17.40;99.90;;;;;;5050790;28;20944;-71
2023/09/21 03:40:18;;;;;;;3.27;2.77;;;17.40;99.90;;;;;;5050437;28;20446;-72
2023/09/21 03:42:45;;;;;;;4.40;3.53;;;17.40;99.90;;;;;;5046076;28;20453;-72
2023/09/21 03:45:15;;;;;;;2.90;2.53;;;17.40;99.90;;;;;;5053290;28;20453;-72
2023/09/21 03:47:43;;;;;;;4.77;2.97;;;17.50;99.90;;;;;;5048729;28;20490;-73
2023/09/21 03:50:12;;;;;;;4.33;2.27;;;17.50;99.90;;;;;;5046946;28;20536;-73
2023/09/21 03:52:40;;;;;;;3.80;2.90;;;17.50;99.90;;;;;;5046857;28;20447;-73
2023/09/21 03:55:10;;;;;;;5.60;3.10;;;17.50;99.90;;;;;;5049394;28;20446;-73
2023/09/21 03:57:38;;;;;;;6.37;3.50;;;17.50;99.90;;;;;;5048959;28;20481;-71
2023/09/21 04:00:36;;;;;;;4.83;2.40;;;17.50;99.90;;;;;;5050915;28;20529;-71
2023/09/21 04:03:06;;;;;;;4.83;2.10;;;17.50;99.90;;;;;;5041564;28;20510;-71
2023/09/21 04:05:35;;;;;;;4.43;2.85;;;17.50;99.90;;;;;;5052118;28;20454;-73
2023/09/21 04:08:02;;;;;;;2.80;2.40;;;17.50;99.90;;;;;;5051166;28;20895;-72
2023/09/21 04:10:30;;;;;;;4.03;2.70;;;17.40;99.90;;;;;;5050567;28;20578;-72
2023/09/21 04:12:59;;;;;;;4.63;2.73;;;17.50;99.90;;;;;;5045817;28;20572;-71
2023/09/21 04:15:28;;;;;;;5.27;2.37;;;17.50;99.90;;;;;;5047767;28;20879;-73
2023/09/21 04:17:55;;;;;;;4.43;3.10;;;17.50;99.90;;;;;;5043944;28;20454;-72
2023/09/21 04:20:23;;;;;;;4.97;2.70;;;17.40;99.90;;;;;;5050304;28;20437;-71
2023/09/21 04:22:51;;;;;;;3.07;2.27;;;17.40;99.90;;;;;;5052262;28;20480;-73
2023/09/21 04:25:19;;;;;;;3.93;2.97;;;17.50;99.90;;;;;;5053322;28;21003;-72
2023/09/21 04:27:48;;;;;;;14.70;3.80;;;17.40;99.90;;;;;;5045677;28;20550;-70
2023/09/21 04:30:21;;;;;;;2.73;2.53;;;17.40;99.90;;;;;;5039852;28;20469;-72
2023/09/21 04:32:49;;;;;;;5.83;2.60;;;17.40;99.90;;;;;;5046964;28;20492;-71
2023/09/21 04:35:18;;;;;;;4.43;2.77;;;17.40;99.90;;;;;;5047725;28;20943;-71
2023/09/21 04:37:45;;;;;;;2.90;2.03;;;17.50;99.90;;;;;;5037638;28;20552;-71
2023/09/21 04:40:13;;;;;;;3.40;2.40;;;17.40;99.90;;;;;;5046282;28;20520;-72
2023/09/21 04:42:41;;;;;;;6.03;2.90;;;17.40;99.90;;;;;;5046562;28;20536;-73
2023/09/21 04:45:09;;;;;;;2.97;2.67;;;17.40;99.90;;;;;;5046654;28;21016;-73
2023/09/21 04:47:38;;;;;;;6.13;3.27;;;17.40;99.90;;;;;;5043838;28;20476;-72
2023/09/21 04:50:08;;;;;;;5.60;2.53;;;17.50;99.90;;;;;;5043260;28;20568;-75
2023/09/21 04:52:35;;;;;;;2.60;2.40;;;17.50;99.90;;;;;;5045602;28;20451;-73
2023/09/21 04:55:03;;;;;;;9.00;3.67;;;17.50;99.90;;;;;;5045861;28;20450;-74
2023/09/21 04:57:30;;;;;;;5.50;2.07;;;17.50;99.90;;;;;;5049403;28;20547;-73
2023/09/21 04:59:59;;;;;;;3.57;2.57;;;17.50;99.90;;;;;;5039659;28;20454;-72
2023/09/21 05:02:26;;;;;;;5.53;4.13;;;17.60;99.90;;;;;;5051396;28;20856;-73
2023/09/21 05:04:55;;;;;;;4.33;2.50;;;17.50;99.90;;;;;;5051115;28;20874;-75
2023/09/21 05:07:22;;;;;;;3.63;2.77;;;17.50;99.90;;;;;;5050876;28;20545;-73
2023/09/21 05:09:49;;;;;;;4.10;2.77;;;17.50;99.90;;;;;;5048908;28;20506;-73
2023/09/21 05:12:18;;;;;;;3.20;2.67;;;17.50;99.90;;;;;;5041925;28;20877;-71
2023/09/21 05:14:46;;;;;;;2.80;2.60;;;17.50;99.90;;;;;;5040984;28;20903;-71
2023/09/21 05:17:13;;;;;;;7.40;2.90;;;17.50;99.90;;;;;;5041998;28;20972;-70
2023/09/21 05:19:41;;;;;;;5.90;3.43;;;17.50;99.90;;;;;;5043113;28;20440;-69
2023/09/21 05:22:09;;;;;;;4.07;2.60;;;17.40;99.90;;;;;;5034993;28;20445;-71
2023/09/21 05:24:37;;;;;;;4.07;3.30;;;17.50;99.90;;;;;;5041342;28;20495;-70
2023/09/21 05:27:04;;;;;;;2.43;2.10;;;17.50;99.90;;;;;;5050733;28;20467;-70
2023/09/21 05:29:31;;;;;;;12.90;2.20;;;17.50;99.90;;;;;;5048019;28;20584;-72
2023/09/21 05:31:59;;;;;;;4.67;3.20;;;17.50;99.90;;;;;;5051288;28;20536;-71
2023/09/21 05:34:28;;;;;;;7.13;3.03;;;17.50;99.90;;;;;;5051440;28;20503;-72
2023/09/21 05:36:55;;;;;;;4.53;3.10;;;17.60;99.90;;;;;;5044888;28;20983;-71
2023/09/21 05:39:24;;;;;;;4.77;2.27;;;17.70;99.90;;;;;;5050353;28;20501;-71
2023/09/21 05:41:51;;;;;;;4.13;2.67;;;17.80;99.90;;;;;;5051857;28;20481;-71
2023/09/21 05:44:21;;;;;;;4.87;2.90;;;17.80;99.90;;;;;;5050544;28;20967;-71
2023/09/21 05:46:50;;;;;;;7.73;3.37;;;17.90;99.90;;;;;;5043579;28;20477;-71
2023/09/21 05:49:22;;;;;;;3.70;2.97;;;17.90;99.90;;;;;;5049433;28;20469;-71
2023/09/21 05:51:52;;;;;;;4.57;2.67;;;18.00;99.90;;;;;;5050593;28;20456;-71
2023/09/21 05:54:23;;;;;;;3.87;3.10;;;18.00;99.90;;;;;;5047943;28;20471;-72
2023/09/21 05:56:52;;;;;;;8.13;2.90;;;18.10;99.90;;;;;;5037733;28;20476;-72
2023/09/21 05:59:19;;;;;;;8.40;3.30;;;18.20;99.90;;;;;;5049946;28;20492;-72
2023/09/21 06:01:48;;;;;;;16.10;5.30;;;18.30;99.90;;;;;;5051056;28;20790;-71
2023/09/21 06:04:16;;;;;;;5.93;2.77;;;18.40;99.90;;;;;;5043151;28;20859;-75
2023/09/21 06:06:43;;;;;;;7.00;4.67;;;18.50;99.90;;;;;;5049183;28;20478;-76
2023/09/21 06:09:12;;;;;;;7.67;3.10;;;18.70;99.90;;;;;;5051194;28;20805;-73
2023/09/21 06:11:39;;;;;;;4.93;2.93;;;19.00;99.90;;;;;;5048894;28;20834;-73
2023/09/21 06:14:07;;;;;;;5.33;2.70;;;19.10;99.90;;;;;;5047380;28;21240;-75
2023/09/21 06:16:34;;;;;;;2.40;2.20;;;19.50;99.90;;;;;;5049653;28;20528;-74
2023/09/21 06:19:01;;;;;;;4.33;2.70;;;20.00;99.90;;;;;;5047270;28;20449;-76
2023/09/21 06:21:31;;;;;;;5.30;2.57;;;20.30;99.90;;;;;;5049751;28;20448;-74
2023/09/21 06:23:58;;;;;;;3.73;2.33;;;20.90;99.90;;;;;;5044774;28;20451;-72
2023/09/21 06:26:25;;;;;;;5.67;2.40;;;21.70;99.90;;;;;;5051579;28;20476;-73
2023/09/21 06:28:53;;;;;;;3.60;2.53;;;22.90;99.90;;;;;;5042038;28;20538;-76
2023/09/21 06:31:21;;;;;;;3.07;2.37;;;23.80;99.90;;;;;;5043271;28;20506;-74
2023/09/21 06:33:49;;;;;;;4.73;2.27;;;24.90;99.90;;;;;;5042914;28;20442;-73
2023/09/21 06:36:18;;;;;;;2.77;2.47;;;25.50;98.00;;;;;;5038672;28;20478;-75
2023/09/21 06:38:45;;;;;;;6.50;3.37;;;25.60;95.80;;;;;;5047658;28;20470;-74
2023/09/21 06:41:12;;;;;;;3.00;2.40;;;25.10;96.40;;;;;;5043899;28;20473;-71
2023/09/21 06:43:42;;;;;;;3.87;2.03;;;25.10;96.00;;;;;;5048979;28;20881;-73
2023/09/21 06:46:09;;;;;;;4.43;3.80;;;25.40;96.00;;;;;;5042386;28;20489;-72
2023/09/21 06:48:37;;;;;;;4.50;2.63;;;26.00;94.60;;;;;;5046370;28;20790;-73
2023/09/21 06:51:07;;;;;;;3.80;2.10;;;26.40;93.40;;;;;;5045287;28;21021;-74
2023/09/21 06:53:34;;;;;;;5.90;2.50;;;26.70;93.10;;;;;;5047148;28;20534;-76
2023/09/21 06:56:01;;;;;;;5.33;3.07;;;27.40;91.60;;;;;;5047531;28;20470;-76
2023/09/21 06:58:30;;;;;;;6.67;2.30;;;28.10;90.60;;;;;;5039779;28;20446;-75
2023/09/21 07:00:57;;;;;;;4.30;3.13;;;28.30;89.60;;;;;;5041119;28;20445;-74
2023/09/21 07:03:25;;;;;;;8.70;2.50;;;29.10;88.10;;;;;;5051702;28;20441;-78
2023/09/21 07:05:53;;;;;;;3.00;2.50;;;29.70;86.10;;;;;;5042178;28;20479;-76
2023/09/21 07:08:23;;;;;;;6.50;2.90;;;30.40;84.70;;;;;;5043619;28;20450;-75
2023/09/21 07:10:50;;;;;;;4.63;2.93;;;30.70;82.70;;;;;;5043439;28;20918;-75
2023/09/21 07:13:19;;;;;;;3.43;2.47;;;31.20;80.40;;;;;;5051220;28;20504;-74
2023/09/21 07:15:47;;;;;;;5.00;3.07;;;31.20;79.30;;;;;;5050565;28;20751;-74
2023/09/21 07:18:15;;;;;;;2.63;2.30;;;30.70;79.60;;;;;;5048318;28;20454;-72
2023/09/21 07:20:41;;;;;;;6.83;3.87;;;30.40;80.60;;;;;;5047042;28;20436;-76
2023/09/21 07:23:10;;;;;;;3.10;2.50;;;30.50;81.10;;;;;;5049028;28;20514;-74
2023/09/21 07:25:37;;;;;;;5.27;3.10;;;30.50;80.30;;;;;;5054424;28;20534;-72
2023/09/21 07:28:05;;;;;;;3.30;2.70;;;30.90;79.00;;;;;;5055306;28;20446;-75
2023/09/21 07:30:32;;;;;;;3.50;2.90;;;30.50;79.10;;;;;;5054196;28;20489;-74
2023/09/21 07:33:00;;;;;;;4.53;2.67;;;29.30;81.30;;;;;;5049284;28;20449;-74
2023/09/21 07:35:27;;;;;;;5.13;3.00;;;28.00;83.40;;;;;;5054992;28;20917;-73
2023/09/21 07:38:05;;;;;;;4.03;2.93;;;27.60;85.80;;;;;;5053636;28;20445;-72
2023/09/21 07:40:36;;;;;;;5.80;2.50;;;26.60;86.00;;;;;;5041930;28;20574;-74
2023/09/21 07:43:04;;;;;;;3.73;2.77;;;26.60;89.00;;;;;;5042595;28;20529;-72
2023/09/21 07:45:31;;;;;;;5.70;3.87;;;26.00;90.20;;;;;;5055664;28;20450;-74
2023/09/21 07:47:58;;;;;;;4.17;2.53;;;25.30;91.00;;;;;;5054518;28;20529;-75
2023/09/21 07:50:27;;;;;;;4.53;3.23;;;24.80;92.20;;;;;;5050549;28;21098;-76
2023/09/21 07:52:56;;;;;;;5.90;3.23;;;24.20;93.20;;;;;;5052700;28;20469;-74
2023/09/21 07:55:23;;;;;;;3.30;2.13;;;24.00;94.00;;;;;;5051367;28;20912;-76
2023/09/21 07:57:52;;;;;;;4.67;3.07;;;23.80;94.60;;;;;;5045793;28;20438;-73
2023/09/21 08:00:19;;;;;;;4.27;2.47;;;23.50;95.00;;;;;;5046955;28;20445;-76
2023/09/21 08:02:47;;;;;;;4.93;2.93;;;23.70;95.60;;;;;;5044293;28;20529;-72
2023/09/21 08:05:14;;;;;;;3.50;2.90;;;23.80;95.50;;;;;;5048831;28;20497;-74
2023/09/21 08:07:41;;;;;;;6.63;2.83;;;23.80;95.50;;;;;;5052448;28;20454;-77
2023/09/21 08:10:10;;;;;;;6.67;2.37;;;23.90;95.50;;;;;;5041796;28;20983;-75
2023/09/21 08:12:38;;;;;;;5.43;2.80;;;24.00;95.30;;;;;;5050536;28;20544;-73
2023/09/21 08:15:11;;;;;;;4.90;3.20;;;23.80;95.60;;;;;;5046103;28;20714;-78
2023/09/21 08:17:38;;;;;;;3.60;2.60;;;24.50;95.50;;;;;;5048471;28;20466;-73
2023/09/21 08:20:09;;;;;;;4.63;2.80;;;24.80;94.20;;;;;;5052542;28;20442;-71
2023/09/21 08:22:36;;;;;;;4.80;2.53;;;24.50;94.20;;;;;;5039544;28;20459;-72
2023/09/21 08:25:04;;;;;;;4.30;2.70;;;24.70;94.60;;;;;;5050767;28;20468;-73
2023/09/21 08:27:33;;;;;;;3.80;2.37;;;26.00;93.80;;;;;;5052711;28;20459;-75
2023/09/21 08:30:03;;;;;;;7.10;3.10;;;27.50;91.80;;;;;;5043350;28;20506;-73
2023/09/21 08:32:32;;;;;;;15.47;2.97;;;29.00;88.90;;;;;;5050283;28;20503;-75
2023/09/21 08:35:01;;;;;;;4.63;2.70;;;30.40;84.20;;;;;;5044636;28;20465;-74
2023/09/21 08:37:28;;;;;;;6.43;2.77;;;30.80;80.80;;;;;;5056611;28;20644;-73
2023/09/21 08:39:56;;;;;;;3.70;3.30;;;31.10;80.40;;;;;;5055024;28;20438;-74
2023/09/21 08:42:25;;;;;;;5.50;2.70;;;32.30;78.80;;;;;;5044824;28;20451;-73
2023/09/21 08:44:53;;;;;;;4.30;2.43;;;32.30;77.00;;;;;;5043201;28;20439;-73
2023/09/21 08:47:21;;;;;;;4.43;3.43;;;33.40;75.90;;;;;;5042013;28;20554;-75
2023/09/21 08:49:49;;;;;;;3.70;2.90;;;33.80;74.60;;;;;;5038438;28;21021;-76
2023/09/21 08:52:17;;;;;;;4.50;3.30;;;34.20;73.00;;;;;;5042266;28;20475;-74
2023/09/21 08:54:48;;;;;;;4.30;3.90;;;34.50;71.60;;;;;;5051167;28;20936;-75
2023/09/21 08:57:15;;;;;;;3.40;3.00;;;34.70;70.20;;;;;;5048097;28;20557;-73
2023/09/21 08:59:43;;;;;;;5.23;3.63;;;34.90;69.90;;;;;;5048810;28;20478;-74
2023/09/21 09:02:13;;;;;;;6.20;3.17;;;34.80;69.10;;;;;;5044565;28;20526;-77
2023/09/21 09:04:42;;;;;;;4.93;2.60;;;33.60;69.70;;;;;;5052565;28;20481;-74
2023/09/21 09:07:12;;;;;;;2.83;2.53;;;33.50;71.20;;;;;;5039499;28;20536;-75
2023/09/21 09:09:39;;;;;;;4.10;3.63;;;33.40;70.80;;;;;;5051356;28;20792;-73
2023/09/21 09:12:22;;;;;;;3.33;2.97;;;33.70;71.30;;;;;;5045862;28;20477;-73
2023/09/21 09:14:50;;;;;;;3.10;2.90;;;33.70;71.00;;;;;;5042932;28;20454;-75
2023/09/21 09:17:18;;;;;;;2.97;2.67;;;33.60;70.30;;;;;;5040844;28;20531;-75
2023/09/21 09:19:46;;;;;;;3.47;3.17;;;33.30;70.40;;;;;;5046714;28;20449;-73
2023/09/21 09:22:16;;;;;;;3.17;2.50;;;32.70;71.30;;;;;;5043384;28;20438;-74
2023/09/21 09:24:46;;;;;;;3.17;2.30;;;31.80;72.40;;;;;;5050768;28;20446;-74
2023/09/21 09:27:13;;;;;;;5.00;3.10;;;31.30;74.30;;;;;;5046404;28;20540;-74
2023/09/21 09:29:48;;;;;;;4.00;3.30;;;30.40;76.10;;;;;;5051675;28;20830;-75
2023/09/21 09:32:18;;;;;;;2.50;2.27;;;29.80;77.70;;;;;;5048508;28;20485;-74
2023/09/21 09:34:46;;;;;;;4.43;2.43;;;28.70;79.50;;;;;;5047224;28;20471;-75
2023/09/21 09:37:15;;;;;;;3.17;2.63;;;28.00;81.50;;;;;;5051184;28;20539;-74
2023/09/21 09:39:42;;;;;;;4.00;2.80;;;27.30;83.20;;;;;;5047311;28;20821;-77
2023/09/21 09:42:11;;;;;;;3.10;2.57;;;27.00;84.90;;;;;;5051675;28;20474;-73
2023/09/21 09:44:46;;;;;;;3.30;2.37;;;26.70;85.80;;;;;;5043363;28;20879;-74
2023/09/21 09:47:17;;;;;;;3.40;2.57;;;26.40;86.90;;;;;;5047152;28;20512;-74
2023/09/21 09:49:47;;;;;;;4.70;3.03;;;26.00;87.80;;;;;;5037211;28;20459;-73
2023/09/21 09:52:18;;;;;;;3.87;2.63;;;25.80;89.20;;;;;;5044309;28;21057;-77
2023/09/21 09:54:47;;;;;;;3.13;2.30;;;26.10;89.60;;;;;;5048874;28;20457;-74
2023/09/21 09:57:21;;;;;;;6.07;3.30;;;26.60;88.40;;;;;;5044062;28;20479;-76
2023/09/21 09:59:50;;;;;;;2.80;2.50;;;27.10;87.20;;;;;;5040869;28;20450;-75
2023/09/21 10:02:19;;;;;;;4.47;4.03;;;27.10;86.50;;;;;;5047575;28;20438;-77
2023/09/21 10:04:47;;;;;;;2.40;2.17;;;27.30;86.30;;;;;;5041381;28;20466;-74
2023/09/21 10:07:17;;;;;;;4.53;2.77;;;27.40;85.90;;;;;;5044701;28;20457;-74
2023/09/21 10:09:44;;;;;;;4.17;2.40;;;27.30;85.90;;;;;;5045781;28;20963;-76
2023/09/21 10:12:12;;;;;;;2.93;2.60;;;27.70;86.00;;;;;;5040137;28;20702;-78
2023/09/21 10:14:43;;;;;;;4.93;2.80;;;27.50;86.00;;;;;;5050058;28;20791;-73
2023/09/21 10:17:13;;;;;;;3.07;2.30;;;27.20;86.20;;;;;;5049519;28;20462;-73
2023/09/21 10:19:43;;;;;;;4.83;2.73;;;27.00;86.70;;;;;;5043942;28;20441;-75
2023/09/21 10:22:25;;;;;;;4.70;3.03;;;26.80;87.60;;;;;;5047537;28;20442;-75
2023/09/21 10:24:53;;;;;;;4.10;3.10;;;26.70;88.10;;;;;;5050435;28;20450;-74
2023/09/21 10:27:23;;;;;;;3.83;2.60;;;27.00;88.80;;;;;;5048346;28;20474;-76
2023/09/21 10:29:54;;;;;;;6.43;2.90;;;27.20;88.20;;;;;;5051952;28;20450;-78
2023/09/21 10:32:24;;;;;;;5.97;3.23;;;27.20;87.10;;;;;;5050112;28;20508;-73
2023/09/21 10:34:52;;;;;;;3.73;2.80;;;27.50;87.30;;;;;;5046187;28;20807;-74
2023/09/21 10:37:28;;;;;;;7.93;3.27;;;27.70;87.10;;;;;;5041211;28;20505;-70
2023/09/21 10:39:58;;;;;;;3.60;2.80;;;27.70;86.30;;;;;;5044044;28;20976;-75
2023/09/21 10:42:33;;;;;;;3.83;2.33;;;27.70;86.60;;;;;;5050335;28;20457;-71
2023/09/21 10:45:07;;;;;;;3.33;2.90;;;27.80;87.10;;;;;;5045629;28;20441;-73
2023/09/21 10:47:40;;;;;;;3.03;2.20;;;27.70;86.50;;;;;;5042763;28;20471;-70
2023/09/21 10:50:10;;;;;;;3.43;2.63;;;27.70;86.90;;;;;;5041999;28;20869;-71
2023/09/21 10:52:41;;;;;;;5.20;2.63;;;27.70;87.40;;;;;;5044142;28;20532;-72
2023/09/21 10:55:12;;;;;;;5.97;3.53;;;27.30;87.80;;;;;;5054176;28;20446;-71
2023/09/21 10:57:41;;;;;;;2.93;2.37;;;27.20;88.50;;;;;;5049896;28;20500;-70
2023/09/21 11:00:15;;;;;;;5.10;2.63;;;27.20;89.10;;;;;;5054081;28;20513;-72
2023/09/21 11:02:44;;;;;;;4.00;3.13;;;27.30;89.30;;;;;;5051850;28;20445;-74
2023/09/21 11:05:11;;;;;;;4.33;3.40;;;27.50;88.30;;;;;;5048584;28;20448;-72
2023/09/21 11:07:41;;;;;;;7.63;2.90;;;27.30;88.70;;;;;;5055355;28;20500;-77
2023/09/21 11:10:11;;;;;;;3.80;3.23;;;27.30;88.90;;;;;;5053692;28;20442;-73
2023/09/21 11:12:40;;;;;;;4.50;2.77;;;27.00;89.30;;;;;;5048722;28;20469;-72
2023/09/21 11:15:10;;;;;;;4.20;2.90;;;26.80;90.40;;;;;;5052686;28;20458;-71
2023/09/21 11:17:51;;;;;;;4.90;2.63;;;26.50;90.40;;;;;;5056012;28;20483;-70
2023/09/21 11:20:39;;;;;;;5.93;2.50;;;26.60;90.80;;;;;;5049781;28;20491;-70
2023/09/21 11:23:13;;;;;;;3.07;2.77;;;26.60;90.80;;;;;;5046163;28;20461;-69
2023/09/21 11:25:41;;;;;;;3.30;2.93;;;26.40;91.10;;;;;;5049100;28;20466;-72
2023/09/21 11:28:10;;;;;;;3.20;2.80;;;26.30;91.30;;;;;;5046045;28;20438;-70
2023/09/21 11:30:37;;;;;;;2.93;2.60;;;26.30;91.30;;;;;;5047446;28;20434;-71
2023/09/21 11:33:04;;;;;;;3.30;2.13;;;26.30;91.50;;;;;;5040455;28;20447;-70
2023/09/21 11:35:32;;;;;;;3.70;3.00;;;26.30;91.40;;;;;;5051529;28;20438;-71
2023/09/21 11:38:00;;;;;;;5.10;2.97;;;26.40;91.50;;;;;;5049856;28;20462;-73
2023/09/21 11:40:28;;;;;;;5.60;3.30;;;26.40;91.70;;;;;;5045620;28;20508;-74
2023/09/21 11:42:59;;;;;;;6.70;3.10;;;26.50;91.40;;;;;;5049234;28;20503;-72
2023/09/21 11:45:27;;;;;;;3.80;2.70;;;26.50;91.40;;;;;;5046105;28;20454;-72
2023/09/21 11:47:56;;;;;;;7.83;3.40;;;26.40;91.30;;;;;;5050785;28;20441;-73
2023/09/21 11:50:25;;;;;;;3.77;2.23;;;26.40;91.70;;;;;;5044131;28;20454;-71
2023/09/21 11:52:54;;;;;;;4.00;2.60;;;26.30;91.80;;;;;;5049923;28;20514;-73
2023/09/21 11:55:25;;;;;;;3.00;2.00;;;26.20;91.90;;;;;;5048099;28;20845;-75
2023/09/21 11:57:54;;;;;;;5.67;2.50;;;26.20;92.00;;;;;;5050092;28;20446;-70
2023/09/21 12:00:37;;;;;;;5.00;2.90;;;26.30;92.00;;;;;;5045013;28;20447;-70
2023/09/21 12:03:04;;;;;;;4.77;2.60;;;26.60;91.70;;;;;;5037454;28;20526;-71
2023/09/21 12:05:32;;;;;;;3.27;2.43;;;26.60;91.40;;;;;;5053489;28;20438;-74
2023/09/21 12:07:58;;;;;;;4.87;2.47;;;26.60;91.70;;;;;;5047639;28;20447;-69
2023/09/21 12:10:25;;;;;;;3.67;2.90;;;26.60;91.20;;;;;;5048831;28;20875;-74
2023/09/21 12:12:55;;;;;;;4.07;2.40;;;26.40;91.70;;;;;;5050562;28;20568;-73
2023/09/21 12:15:29;;;;;;;4.17;2.90;;;26.10;91.70;;;;;;5048420;28;20543;-73
2023/09/21 12:17:56;;;;;;;4.23;3.03;;;26.10;91.60;;;;;;5051414;28;20879;-71
2023/09/21 12:20:30;;;;;;;4.37;2.87;;;26.20;92.00;;;;;;5041140;28;20454;-72
2023/09/21 12:22:57;;;;;;;6.10;2.63;;;26.10;91.60;;;;;;5050856;28;20448;-73
2023/09/21 12:26:02;;;;;;;2.80;2.33;;;26.00;91.90;;;;;;5042626;28;20529;-73
2023/09/21 12:28:30;;;;;;;3.03;2.20;;;26.10;92.00;;;;;;5047364;28;20446;-71
2023/09/21 12:30:57;;;;;;;4.67;2.00;;;26.10;92.20;;;;;;5042746;28;20521;-71
2023/09/21 12:33:29;;;;;;;3.87;2.70;;;26.30;91.90;;;;;;5053587;28;20491;-74
2023/09/21 12:35:57;;;;;;;4.37;2.83;;;26.40;91.80;;;;;;5050428;28;20458;-71
2023/09/21 12:38:24;;;;;;;5.53;2.83;;;26.40;91.90;;;;;;5053147;28;20446;-72
2023/09/21 12:40:54;;;;;;;3.13;2.00;;;26.40;91.90;;;;;;5049531;28;20438;-74
2023/09/21 12:43:21;;;;;;;2.90;2.57;;;26.30;92.00;;;;;;5043816;28;20504;-71
2023/09/21 12:45:50;;;;;;;4.13;2.50;;;26.30;92.10;;;;;;5042864;28;20549;-72
2023/09/21 12:48:17;;;;;;;3.17;2.43;;;26.10;92.20;;;;;;5042493;28;20442;-73
2023/09/21 12:50:44;;;;;;;3.63;2.47;;;26.10;92.20;;;;;;5046147;28;20517;-73
2023/09/21 12:53:11;;;;;;;2.83;2.40;;;26.00;92.20;;;;;;5041451;28;20837;-72
2023/09/21 12:55:40;;;;;;;6.80;2.87;;;26.00;92.30;;;;;;5048883;28;20511;-70